メインページ
METAR-TAF:

METAR-TAF

空港 :

シェレメーチエヴォ国際空港

モスクワ-シェレメーチエヴォ, ロシア

緯度: 55-58N, 経度: 037-25E, 海抜: 190m

現時点の気象観測

当レポートは17分前の11:30(UTC)に作成
南西の風 6kt
気温 2°C
湿度 44%
気圧 1044 hPa
視程10km以上
1,500メートル以下は雲なし、積乱雲なし

METAR: UUEE 161130Z 22003MPS CAVOK 02/M09 Q1044 R24C/190045 R24L/150051 NOSIG

時間: 14:47 (11:47 UTC)

予報

当レポートは47分前の11:00(UTC)に作成
予報は16日の 12時(UTC)から 17日の 12時(UTC)まで有効
南/南西の風 8kt
視程: 9000m
高度3000ftの雲は散在している

TAF: UUEE 161100Z 1612/1712 20004MPS 9000 SCT030 TX00/1612Z TNM07/1703Z

4,000以上の空港の気象観測と天気予報(METAR報とTAF報)

利用可能な観測所は地図上に黄色い丸と赤い丸で示す。

丸の上にカーソルを重ねると観測所名を参照できる。

次にクリックすると気象観測と天気予報を参照できる。

マップの切り替え:黒色「×」印の緑ボタンをクリックして拡大、「-」印の緑ボタンをクリックして縮小、緑色の三角印をクリックして隣りの地図に切り替え


METAR-TAF: